sensor_id;sensor_type;location;lat;lon;timestamp;P1;durP1;ratioP1;P2;durP2;ratioP2
15996;SDS011;8103;51.340;12.326;2023-06-10T00:00:27;5.15;;;3.25;;
15996;SDS011;8103;51.340;12.326;2023-06-10T00:02:54;5.93;;;3.50;;
15996;SDS011;8103;51.340;12.326;2023-06-10T00:05:21;6.28;;;3.42;;
15996;SDS011;8103;51.340;12.326;2023-06-10T00:07:48;6.88;;;3.80;;
15996;SDS011;8103;51.340;12.326;2023-06-10T00:10:15;6.50;;;3.40;;
15996;SDS011;8103;51.340;12.326;2023-06-10T00:12:42;4.70;;;3.35;;
15996;SDS011;8103;51.340;12.326;2023-06-10T00:15:10;4.93;;;3.33;;
15996;SDS011;8103;51.340;12.326;2023-06-10T00:17:37;4.55;;;3.20;;
15996;SDS011;8103;51.340;12.326;2023-06-10T00:20:07;6.25;;;3.00;;
15996;SDS011;8103;51.340;12.326;2023-06-10T00:22:37;6.07;;;3.83;;
15996;SDS011;8103;51.340;12.326;2023-06-10T00:25:06;6.25;;;3.88;;
15996;SDS011;8103;51.340;12.326;2023-06-10T00:27:34;8.00;;;3.70;;
15996;SDS011;8103;51.340;12.326;2023-06-10T00:30:04;4.43;;;3.50;;
15996;SDS011;8103;51.340;12.326;2023-06-10T00:32:33;10.00;;;4.18;;
15996;SDS011;8103;51.340;12.326;2023-06-10T00:35:01;5.82;;;3.90;;
15996;SDS011;8103;51.340;12.326;2023-06-10T00:37:28;6.72;;;3.53;;
15996;SDS011;8103;51.340;12.326;2023-06-10T00:39:55;8.00;;;3.55;;
15996;SDS011;8103;51.340;12.326;2023-06-10T00:42:22;4.07;;;3.63;;
15996;SDS011;8103;51.340;12.326;2023-06-10T00:44:50;8.73;;;3.58;;
15996;SDS011;8103;51.340;12.326;2023-06-10T00:47:17;3.78;;;3.08;;
15996;SDS011;8103;51.340;12.326;2023-06-10T00:49:45;5.90;;;3.97;;
15996;SDS011;8103;51.340;12.326;2023-06-10T00:52:12;5.00;;;3.13;;
15996;SDS011;8103;51.340;12.326;2023-06-10T00:54:41;5.72;;;3.42;;
15996;SDS011;8103;51.340;12.326;2023-06-10T00:57:08;5.05;;;3.58;;
15996;SDS011;8103;51.340;12.326;2023-06-10T00:59:34;4.93;;;3.75;;
15996;SDS011;8103;51.340;12.326;2023-06-10T01:02:03;5.45;;;3.15;;
15996;SDS011;8103;51.340;12.326;2023-06-10T01:04:30;6.25;;;3.63;;
15996;SDS011;8103;51.340;12.326;2023-06-10T01:07:00;3.53;;;2.97;;
15996;SDS011;8103;51.340;12.326;2023-06-10T01:09:45;6.45;;;3.65;;
15996;SDS011;8103;51.340;12.326;2023-06-10T01:14:55;7.43;;;3.83;;
15996;SDS011;8103;51.340;12.326;2023-06-10T01:17:22;9.50;;;3.85;;
15996;SDS011;8103;51.340;12.326;2023-06-10T01:19:55;8.02;;;4.63;;
15996;SDS011;8103;51.340;12.326;2023-06-10T01:22:26;6.20;;;4.50;;
15996;SDS011;8103;51.340;12.326;2023-06-10T01:24:58;6.43;;;4.13;;
15996;SDS011;8103;51.340;12.326;2023-06-10T01:27:29;6.00;;;3.80;;
15996;SDS011;8103;51.340;12.326;2023-06-10T01:30:07;7.20;;;5.68;;
15996;SDS011;8103;51.340;12.326;2023-06-10T01:32:39;7.05;;;4.93;;
15996;SDS011;8103;51.340;12.326;2023-06-10T01:35:09;7.72;;;5.85;;
15996;SDS011;8103;51.340;12.326;2023-06-10T01:37:37;8.82;;;5.80;;
15996;SDS011;8103;51.340;12.326;2023-06-10T01:40:06;8.02;;;5.30;;
15996;SDS011;8103;51.340;12.326;2023-06-10T01:42:34;8.18;;;5.90;;
15996;SDS011;8103;51.340;12.326;2023-06-10T01:45:01;7.90;;;5.32;;
15996;SDS011;8103;51.340;12.326;2023-06-10T01:47:28;7.32;;;5.72;;
15996;SDS011;8103;51.340;12.326;2023-06-10T01:49:55;11.40;;;5.80;;
15996;SDS011;8103;51.340;12.326;2023-06-10T01:52:22;8.43;;;5.13;;
15996;SDS011;8103;51.340;12.326;2023-06-10T01:54:49;8.55;;;5.70;;
15996;SDS011;8103;51.340;12.326;2023-06-10T01:57:15;7.53;;;5.53;;
15996;SDS011;8103;51.340;12.326;2023-06-10T01:59:42;9.23;;;5.57;;
15996;SDS011;8103;51.340;12.326;2023-06-10T02:02:10;9.00;;;5.25;;
15996;SDS011;8103;51.340;12.326;2023-06-10T02:04:37;9.23;;;4.97;;
15996;SDS011;8103;51.340;12.326;2023-06-10T02:07:06;6.72;;;5.10;;
15996;SDS011;8103;51.340;12.326;2023-06-10T02:09:33;4.80;;;4.28;;
15996;SDS011;8103;51.340;12.326;2023-06-10T02:12:02;6.28;;;4.30;;
15996;SDS011;8103;51.340;12.326;2023-06-10T02:14:30;9.32;;;4.72;;
15996;SDS011;8103;51.340;12.326;2023-06-10T02:16:58;4.88;;;4.28;;
15996;SDS011;8103;51.340;12.326;2023-06-10T02:19:25;7.38;;;4.72;;
15996;SDS011;8103;51.340;12.326;2023-06-10T02:21:53;5.45;;;4.40;;
15996;SDS011;8103;51.340;12.326;2023-06-10T02:24:22;10.00;;;4.72;;
15996;SDS011;8103;51.340;12.326;2023-06-10T02:26:52;7.38;;;5.10;;
15996;SDS011;8103;51.340;12.326;2023-06-10T02:29:19;5.90;;;4.13;;
15996;SDS011;8103;51.340;12.326;2023-06-10T02:31:46;4.75;;;4.22;;
15996;SDS011;8103;51.340;12.326;2023-06-10T02:34:13;4.28;;;3.65;;
15996;SDS011;8103;51.340;12.326;2023-06-10T02:36:42;6.30;;;3.80;;
15996;SDS011;8103;51.340;12.326;2023-06-10T02:39:09;7.07;;;4.93;;
15996;SDS011;8103;51.340;12.326;2023-06-10T02:41:36;14.25;;;5.72;;
15996;SDS011;8103;51.340;12.326;2023-06-10T02:44:04;6.00;;;4.72;;
15996;SDS011;8103;51.340;12.326;2023-06-10T02:46:30;4.72;;;4.13;;
15996;SDS011;8103;51.340;12.326;2023-06-10T02:48:58;6.72;;;4.57;;
15996;SDS011;8103;51.340;12.326;2023-06-10T02:51:24;7.07;;;4.38;;
15996;SDS011;8103;51.340;12.326;2023-06-10T02:53:51;5.72;;;4.40;;
15996;SDS011;8103;51.340;12.326;2023-06-10T02:56:18;7.97;;;4.70;;
15996;SDS011;8103;51.340;12.326;2023-06-10T02:58:46;4.90;;;4.05;;
15996;SDS011;8103;51.340;12.326;2023-06-10T03:01:14;4.22;;;3.72;;
15996;SDS011;8103;51.340;12.326;2023-06-10T03:03:41;5.18;;;4.25;;
15996;SDS011;8103;51.340;12.326;2023-06-10T03:06:12;7.95;;;4.45;;
15996;SDS011;8103;51.340;12.326;2023-06-10T03:08:39;6.22;;;3.78;;
15996;SDS011;8103;51.340;12.326;2023-06-10T03:11:06;6.75;;;4.75;;
15996;SDS011;8103;51.340;12.326;2023-06-10T03:13:34;7.47;;;4.13;;
15996;SDS011;8103;51.340;12.326;2023-06-10T03:16:01;5.38;;;4.15;;
15996;SDS011;8103;51.340;12.326;2023-06-10T03:18:29;6.05;;;4.75;;
15996;SDS011;8103;51.340;12.326;2023-06-10T03:20:56;8.07;;;4.25;;
15996;SDS011;8103;51.340;12.326;2023-06-10T03:23:23;6.45;;;4.35;;
15996;SDS011;8103;51.340;12.326;2023-06-10T03:25:51;4.20;;;3.78;;
15996;SDS011;8103;51.340;12.326;2023-06-10T03:28:18;4.80;;;4.30;;
15996;SDS011;8103;51.340;12.326;2023-06-10T03:30:46;5.50;;;3.80;;
15996;SDS011;8103;51.340;12.326;2023-06-10T03:33:13;5.45;;;4.60;;
15996;SDS011;8103;51.340;12.326;2023-06-10T03:35:40;5.15;;;4.05;;
15996;SDS011;8103;51.340;12.326;2023-06-10T03:38:07;5.28;;;4.03;;
15996;SDS011;8103;51.340;12.326;2023-06-10T03:40:35;5.75;;;3.95;;
15996;SDS011;8103;51.340;12.326;2023-06-10T03:43:02;8.98;;;4.53;;
15996;SDS011;8103;51.340;12.326;2023-06-10T03:45:29;6.68;;;4.20;;
15996;SDS011;8103;51.340;12.326;2023-06-10T03:47:56;6.78;;;4.22;;
15996;SDS011;8103;51.340;12.326;2023-06-10T03:50:23;7.63;;;4.10;;
15996;SDS011;8103;51.340;12.326;2023-06-10T03:52:50;6.00;;;4.00;;
15996;SDS011;8103;51.340;12.326;2023-06-10T03:55:18;5.63;;;3.60;;
15996;SDS011;8103;51.340;12.326;2023-06-10T03:57:48;7.07;;;3.75;;
15996;SDS011;8103;51.340;12.326;2023-06-10T04:00:15;7.40;;;4.22;;
15996;SDS011;8103;51.340;12.326;2023-06-10T04:02:43;7.95;;;4.18;;
15996;SDS011;8103;51.340;12.326;2023-06-10T04:05:18;6.10;;;3.95;;
15996;SDS011;8103;51.340;12.326;2023-06-10T04:07:49;9.75;;;3.70;;
15996;SDS011;8103;51.340;12.326;2023-06-10T04:10:17;7.10;;;4.10;;
15996;SDS011;8103;51.340;12.326;2023-06-10T04:12:44;6.82;;;4.28;;
15996;SDS011;8103;51.340;12.326;2023-06-10T04:15:12;5.63;;;4.03;;
15996;SDS011;8103;51.340;12.326;2023-06-10T04:17:39;6.28;;;4.35;;
15996;SDS011;8103;51.340;12.326;2023-06-10T04:20:07;4.80;;;4.30;;
15996;SDS011;8103;51.340;12.326;2023-06-10T04:22:36;8.32;;;4.95;;
15996;SDS011;8103;51.340;12.326;2023-06-10T04:25:03;6.20;;;4.72;;
15996;SDS011;8103;51.340;12.326;2023-06-10T04:27:30;6.88;;;4.18;;
15996;SDS011;8103;51.340;12.326;2023-06-10T04:29:57;7.43;;;4.80;;
15996;SDS011;8103;51.340;12.326;2023-06-10T04:32:25;6.85;;;4.50;;
15996;SDS011;8103;51.340;12.326;2023-06-10T04:34:52;7.93;;;5.28;;
15996;SDS011;8103;51.340;12.326;2023-06-10T04:37:19;7.57;;;5.00;;
15996;SDS011;8103;51.340;12.326;2023-06-10T04:39:47;4.97;;;4.45;;
15996;SDS011;8103;51.340;12.326;2023-06-10T04:42:14;6.97;;;4.82;;
15996;SDS011;8103;51.340;12.326;2023-06-10T04:44:41;5.15;;;4.35;;
15996;SDS011;8103;51.340;12.326;2023-06-10T04:47:09;5.38;;;4.35;;
15996;SDS011;8103;51.340;12.326;2023-06-10T04:49:36;10.95;;;4.45;;
15996;SDS011;8103;51.340;12.326;2023-06-10T04:52:03;5.70;;;4.00;;
15996;SDS011;8103;51.340;12.326;2023-06-10T04:54:31;5.93;;;4.80;;
15996;SDS011;8103;51.340;12.326;2023-06-10T04:56:58;9.98;;;5.00;;
15996;SDS011;8103;51.340;12.326;2023-06-10T04:59:26;6.63;;;4.78;;
15996;SDS011;8103;51.340;12.326;2023-06-10T05:01:53;10.30;;;5.18;;
15996;SDS011;8103;51.340;12.326;2023-06-10T05:04:21;7.43;;;4.30;;
15996;SDS011;8103;51.340;12.326;2023-06-10T05:06:48;8.77;;;4.90;;
15996;SDS011;8103;51.340;12.326;2023-06-10T05:09:15;9.93;;;6.13;;
15996;SDS011;8103;51.340;12.326;2023-06-10T05:11:43;11.00;;;6.22;;
15996;SDS011;8103;51.340;12.326;2023-06-10T05:14:10;8.23;;;4.50;;
15996;SDS011;8103;51.340;12.326;2023-06-10T05:16:38;6.88;;;4.68;;
15996;SDS011;8103;51.340;12.326;2023-06-10T05:19:05;7.72;;;5.28;;
15996;SDS011;8103;51.340;12.326;2023-06-10T05:21:33;11.70;;;6.40;;
15996;SDS011;8103;51.340;12.326;2023-06-10T05:24:01;9.10;;;4.78;;
15996;SDS011;8103;51.340;12.326;2023-06-10T05:26:28;7.25;;;5.65;;
15996;SDS011;8103;51.340;12.326;2023-06-10T05:28:57;6.82;;;5.32;;
15996;SDS011;8103;51.340;12.326;2023-06-10T05:31:25;6.40;;;4.95;;
15996;SDS011;8103;51.340;12.326;2023-06-10T05:33:52;6.28;;;4.60;;
15996;SDS011;8103;51.340;12.326;2023-06-10T05:36:19;11.38;;;6.20;;
15996;SDS011;8103;51.340;12.326;2023-06-10T05:38:47;10.73;;;6.38;;
15996;SDS011;8103;51.340;12.326;2023-06-10T05:41:14;9.85;;;5.40;;
15996;SDS011;8103;51.340;12.326;2023-06-10T05:43:41;10.02;;;6.30;;
15996;SDS011;8103;51.340;12.326;2023-06-10T05:46:11;7.00;;;4.75;;
15996;SDS011;8103;51.340;12.326;2023-06-10T05:48:39;8.32;;;4.90;;
15996;SDS011;8103;51.340;12.326;2023-06-10T05:51:06;9.30;;;5.07;;
15996;SDS011;8103;51.340;12.326;2023-06-10T05:53:33;8.50;;;4.55;;
15996;SDS011;8103;51.340;12.326;2023-06-10T05:56:01;5.40;;;4.50;;
15996;SDS011;8103;51.340;12.326;2023-06-10T05:58:28;9.70;;;5.47;;
15996;SDS011;8103;51.340;12.326;2023-06-10T06:00:55;7.97;;;6.03;;
15996;SDS011;8103;51.340;12.326;2023-06-10T06:03:22;7.03;;;4.38;;
15996;SDS011;8103;51.340;12.326;2023-06-10T06:05:50;6.05;;;5.15;;
15996;SDS011;8103;51.340;12.326;2023-06-10T06:08:17;10.75;;;6.43;;
15996;SDS011;8103;51.340;12.326;2023-06-10T06:10:45;6.47;;;5.45;;
15996;SDS011;8103;51.340;12.326;2023-06-10T06:13:13;7.85;;;5.68;;
15996;SDS011;8103;51.340;12.326;2023-06-10T06:15:41;10.05;;;6.15;;
15996;SDS011;8103;51.340;12.326;2023-06-10T06:18:08;8.38;;;5.80;;
15996;SDS011;8103;51.340;12.326;2023-06-10T06:20:35;7.75;;;6.32;;
15996;SDS011;8103;51.340;12.326;2023-06-10T06:23:02;7.75;;;5.88;;
15996;SDS011;8103;51.340;12.326;2023-06-10T06:25:30;8.60;;;5.60;;
15996;SDS011;8103;51.340;12.326;2023-06-10T06:27:57;8.07;;;5.65;;
15996;SDS011;8103;51.340;12.326;2023-06-10T06:30:24;7.63;;;5.20;;
15996;SDS011;8103;51.340;12.326;2023-06-10T06:32:51;7.78;;;5.97;;
15996;SDS011;8103;51.340;12.326;2023-06-10T06:35:18;10.20;;;6.25;;
15996;SDS011;8103;51.340;12.326;2023-06-10T06:37:46;7.07;;;6.05;;
15996;SDS011;8103;51.340;12.326;2023-06-10T06:40:13;8.65;;;5.50;;
15996;SDS011;8103;51.340;12.326;2023-06-10T06:42:40;7.93;;;5.32;;
15996;SDS011;8103;51.340;12.326;2023-06-10T06:45:08;10.13;;;6.15;;
15996;SDS011;8103;51.340;12.326;2023-06-10T06:51:04;10.38;;;6.32;;
15996;SDS011;8103;51.340;12.326;2023-06-10T06:53:32;7.85;;;6.15;;
15996;SDS011;8103;51.340;12.326;2023-06-10T06:55:59;6.97;;;5.82;;
15996;SDS011;8103;51.340;12.326;2023-06-10T06:58:26;8.45;;;5.20;;
15996;SDS011;8103;51.340;12.326;2023-06-10T07:00:54;7.30;;;5.88;;
15996;SDS011;8103;51.340;12.326;2023-06-10T07:03:21;7.38;;;5.35;;
15996;SDS011;8103;51.340;12.326;2023-06-10T07:05:48;8.13;;;5.70;;
15996;SDS011;8103;51.340;12.326;2023-06-10T07:08:16;10.15;;;5.55;;
15996;SDS011;8103;51.340;12.326;2023-06-10T07:10:43;7.40;;;5.82;;
15996;SDS011;8103;51.340;12.326;2023-06-10T07:13:10;11.52;;;6.53;;
15996;SDS011;8103;51.340;12.326;2023-06-10T07:19:08;14.27;;;7.38;;
15996;SDS011;8103;51.340;12.326;2023-06-10T07:21:37;6.82;;;5.85;;
15996;SDS011;8103;51.340;12.326;2023-06-10T07:24:06;7.70;;;6.18;;
15996;SDS011;8103;51.340;12.326;2023-06-10T07:26:40;7.43;;;5.78;;
15996;SDS011;8103;51.340;12.326;2023-06-10T07:29:10;9.35;;;6.15;;
15996;SDS011;8103;51.340;12.326;2023-06-10T07:31:51;11.40;;;6.95;;
15996;SDS011;8103;51.340;12.326;2023-06-10T07:34:19;7.93;;;5.53;;
15996;SDS011;8103;51.340;12.326;2023-06-10T07:36:46;10.60;;;6.32;;
15996;SDS011;8103;51.340;12.326;2023-06-10T07:39:14;12.80;;;6.32;;
15996;SDS011;8103;51.340;12.326;2023-06-10T07:41:41;7.70;;;6.43;;
15996;SDS011;8103;51.340;12.326;2023-06-10T07:44:08;7.20;;;5.75;;
15996;SDS011;8103;51.340;12.326;2023-06-10T07:46:36;8.52;;;5.78;;
15996;SDS011;8103;51.340;12.326;2023-06-10T07:49:03;7.80;;;5.80;;
15996;SDS011;8103;51.340;12.326;2023-06-10T07:51:30;10.45;;;6.95;;
15996;SDS011;8103;51.340;12.326;2023-06-10T07:53:57;12.73;;;8.00;;
15996;SDS011;8103;51.340;12.326;2023-06-10T07:56:25;7.40;;;5.80;;
15996;SDS011;8103;51.340;12.326;2023-06-10T07:58:52;8.32;;;6.30;;
15996;SDS011;8103;51.340;12.326;2023-06-10T08:01:19;6.07;;;5.40;;
15996;SDS011;8103;51.340;12.326;2023-06-10T08:03:47;10.07;;;6.72;;
15996;SDS011;8103;51.340;12.326;2023-06-10T08:06:14;6.57;;;5.40;;
15996;SDS011;8103;51.340;12.326;2023-06-10T08:08:43;9.30;;;6.03;;
15996;SDS011;8103;51.340;12.326;2023-06-10T08:11:11;9.98;;;6.78;;
15996;SDS011;8103;51.340;12.326;2023-06-10T08:13:39;8.77;;;5.70;;
15996;SDS011;8103;51.340;12.326;2023-06-10T08:16:06;7.95;;;6.20;;
15996;SDS011;8103;51.340;12.326;2023-06-10T08:18:33;16.80;;;6.00;;
15996;SDS011;8103;51.340;12.326;2023-06-10T08:21:01;11.68;;;7.07;;
15996;SDS011;8103;51.340;12.326;2023-06-10T08:23:28;6.47;;;5.85;;
15996;SDS011;8103;51.340;12.326;2023-06-10T08:25:56;10.95;;;7.00;;
15996;SDS011;8103;51.340;12.326;2023-06-10T08:28:24;10.63;;;7.20;;
15996;SDS011;8103;51.340;12.326;2023-06-10T08:30:51;8.80;;;6.82;;
15996;SDS011;8103;51.340;12.326;2023-06-10T08:33:19;6.85;;;5.72;;
15996;SDS011;8103;51.340;12.326;2023-06-10T08:35:46;10.63;;;6.53;;
15996;SDS011;8103;51.340;12.326;2023-06-10T08:38:13;10.27;;;6.40;;
15996;SDS011;8103;51.340;12.326;2023-06-10T08:40:42;6.25;;;5.65;;
15996;SDS011;8103;51.340;12.326;2023-06-10T08:46:09;6.40;;;5.78;;
15996;SDS011;8103;51.340;12.326;2023-06-10T08:48:39;7.95;;;5.78;;
15996;SDS011;8103;51.340;12.326;2023-06-10T08:51:09;7.72;;;5.72;;
15996;SDS011;8103;51.340;12.326;2023-06-10T08:53:37;9.10;;;6.47;;
15996;SDS011;8103;51.340;12.326;2023-06-10T08:56:05;9.40;;;6.38;;
15996;SDS011;8103;51.340;12.326;2023-06-10T08:58:33;8.52;;;5.78;;
15996;SDS011;8103;51.340;12.326;2023-06-10T09:01:07;7.53;;;5.60;;
15996;SDS011;8103;51.340;12.326;2023-06-10T09:03:38;7.88;;;5.13;;
15996;SDS011;8103;51.340;12.326;2023-06-10T09:06:05;9.88;;;6.10;;
15996;SDS011;8103;51.340;12.326;2023-06-10T09:08:33;6.18;;;5.18;;
15996;SDS011;8103;51.340;12.326;2023-06-10T09:11:01;5.47;;;4.93;;
15996;SDS011;8103;51.340;12.326;2023-06-10T09:13:28;8.18;;;5.32;;
15996;SDS011;8103;51.340;12.326;2023-06-10T09:15:56;7.45;;;5.32;;
15996;SDS011;8103;51.340;12.326;2023-06-10T09:18:28;6.95;;;5.22;;
15996;SDS011;8103;51.340;12.326;2023-06-10T09:20:59;9.25;;;5.45;;
15996;SDS011;8103;51.340;12.326;2023-06-10T09:23:26;7.60;;;5.32;;
15996;SDS011;8103;51.340;12.326;2023-06-10T09:25:57;8.02;;;5.32;;
15996;SDS011;8103;51.340;12.326;2023-06-10T09:28:24;7.43;;;5.65;;
15996;SDS011;8103;51.340;12.326;2023-06-10T09:31:04;8.75;;;5.03;;
15996;SDS011;8103;51.340;12.326;2023-06-10T09:33:33;5.82;;;5.07;;
15996;SDS011;8103;51.340;12.326;2023-06-10T09:36:04;6.72;;;4.60;;
15996;SDS011;8103;51.340;12.326;2023-06-10T09:38:33;5.70;;;4.68;;
15996;SDS011;8103;51.340;12.326;2023-06-10T09:41:00;6.90;;;5.28;;
15996;SDS011;8103;51.340;12.326;2023-06-10T09:43:41;5.55;;;4.80;;
15996;SDS011;8103;51.340;12.326;2023-06-10T09:46:18;6.68;;;4.65;;
15996;SDS011;8103;51.340;12.326;2023-06-10T09:48:46;5.10;;;4.60;;
15996;SDS011;8103;51.340;12.326;2023-06-10T09:51:14;6.25;;;4.80;;
15996;SDS011;8103;51.340;12.326;2023-06-10T09:53:47;7.57;;;5.25;;
15996;SDS011;8103;51.340;12.326;2023-06-10T09:56:15;7.43;;;5.35;;
15996;SDS011;8103;51.340;12.326;2023-06-10T09:58:42;5.78;;;4.18;;
15996;SDS011;8103;51.340;12.326;2023-06-10T10:01:13;5.35;;;4.55;;
15996;SDS011;8103;51.340;12.326;2023-06-10T10:03:47;7.60;;;5.32;;
15996;SDS011;8103;51.340;12.326;2023-06-10T10:06:17;7.55;;;5.72;;
15996;SDS011;8103;51.340;12.326;2023-06-10T10:08:49;11.90;;;5.95;;
15996;SDS011;8103;51.340;12.326;2023-06-10T10:11:17;5.68;;;5.10;;
15996;SDS011;8103;51.340;12.326;2023-06-10T10:13:45;4.53;;;4.13;;
15996;SDS011;8103;51.340;12.326;2023-06-10T10:16:17;5.65;;;5.15;;
15996;SDS011;8103;51.340;12.326;2023-06-10T10:18:49;6.45;;;4.50;;
15996;SDS011;8103;51.340;12.326;2023-06-10T10:21:16;5.40;;;4.75;;
15996;SDS011;8103;51.340;12.326;2023-06-10T10:23:50;5.40;;;4.90;;
15996;SDS011;8103;51.340;12.326;2023-06-10T10:26:27;5.88;;;5.28;;
15996;SDS011;8103;51.340;12.326;2023-06-10T10:29:05;6.10;;;4.50;;
15996;SDS011;8103;51.340;12.326;2023-06-10T10:31:36;5.60;;;4.88;;
15996;SDS011;8103;51.340;12.326;2023-06-10T10:34:06;7.68;;;5.00;;
15996;SDS011;8103;51.340;12.326;2023-06-10T10:36:34;6.68;;;5.50;;
15996;SDS011;8103;51.340;12.326;2023-06-10T10:39:02;6.13;;;5.57;;
15996;SDS011;8103;51.340;12.326;2023-06-10T10:41:31;5.63;;;4.93;;
15996;SDS011;8103;51.340;12.326;2023-06-10T10:43:58;5.90;;;4.65;;
15996;SDS011;8103;51.340;12.326;2023-06-10T10:46:26;12.32;;;4.90;;
15996;SDS011;8103;51.340;12.326;2023-06-10T10:48:53;10.38;;;5.65;;
15996;SDS011;8103;51.340;12.326;2023-06-10T10:51:22;6.53;;;5.38;;
15996;SDS011;8103;51.340;12.326;2023-06-10T10:56:36;6.13;;;5.55;;
15996;SDS011;8103;51.340;12.326;2023-06-10T10:59:04;5.18;;;4.78;;
15996;SDS011;8103;51.340;12.326;2023-06-10T11:01:41;7.38;;;5.80;;
15996;SDS011;8103;51.340;12.326;2023-06-10T11:04:12;8.55;;;5.68;;
15996;SDS011;8103;51.340;12.326;2023-06-10T11:06:40;5.53;;;5.13;;
15996;SDS011;8103;51.340;12.326;2023-06-10T11:09:25;5.15;;;4.63;;
15996;SDS011;8103;51.340;12.326;2023-06-10T11:11:56;6.38;;;5.28;;
15996;SDS011;8103;51.340;12.326;2023-06-10T11:14:28;5.47;;;4.38;;
15996;SDS011;8103;51.340;12.326;2023-06-10T11:16:56;4.50;;;4.10;;
15996;SDS011;8103;51.340;12.326;2023-06-10T11:19:36;5.28;;;4.85;;
15996;SDS011;8103;51.340;12.326;2023-06-10T11:22:05;10.05;;;5.25;;
15996;SDS011;8103;51.340;12.326;2023-06-10T11:24:33;4.95;;;4.30;;
15996;SDS011;8103;51.340;12.326;2023-06-10T11:32:32;5.25;;;4.80;;
15996;SDS011;8103;51.340;12.326;2023-06-10T11:35:03;5.88;;;4.38;;
15996;SDS011;8103;51.340;12.326;2023-06-10T11:37:31;5.05;;;4.50;;
15996;SDS011;8103;51.340;12.326;2023-06-10T11:40:00;5.78;;;4.93;;
15996;SDS011;8103;51.340;12.326;2023-06-10T11:42:27;4.50;;;4.05;;
15996;SDS011;8103;51.340;12.326;2023-06-10T11:44:54;5.05;;;4.55;;
15996;SDS011;8103;51.340;12.326;2023-06-10T11:47:21;5.18;;;4.35;;
15996;SDS011;8103;51.340;12.326;2023-06-10T11:49:58;4.63;;;4.22;;
15996;SDS011;8103;51.340;12.326;2023-06-10T11:52:29;5.35;;;4.95;;
15996;SDS011;8103;51.340;12.326;2023-06-10T11:54:58;5.88;;;5.28;;
15996;SDS011;8103;51.340;12.326;2023-06-10T11:57:25;4.82;;;4.43;;
15996;SDS011;8103;51.340;12.326;2023-06-10T11:59:52;6.47;;;5.22;;
15996;SDS011;8103;51.340;12.326;2023-06-10T12:02:19;5.35;;;4.93;;
15996;SDS011;8103;51.340;12.326;2023-06-10T12:04:49;5.80;;;5.30;;
15996;SDS011;8103;51.340;12.326;2023-06-10T12:07:17;5.10;;;4.70;;
15996;SDS011;8103;51.340;12.326;2023-06-10T12:09:45;5.05;;;4.55;;
15996;SDS011;8103;51.340;12.326;2023-06-10T12:12:12;5.82;;;4.75;;
15996;SDS011;8103;51.340;12.326;2023-06-10T12:14:53;5.32;;;4.75;;
15996;SDS011;8103;51.340;12.326;2023-06-10T12:20:00;6.10;;;4.10;;
15996;SDS011;8103;51.340;12.326;2023-06-10T12:22:35;6.45;;;4.75;;
15996;SDS011;8103;51.340;12.326;2023-06-10T12:25:06;5.75;;;4.72;;
15996;SDS011;8103;51.340;12.326;2023-06-10T12:27:34;6.18;;;4.75;;
15996;SDS011;8103;51.340;12.326;2023-06-10T12:30:02;5.20;;;4.70;;
15996;SDS011;8103;51.340;12.326;2023-06-10T12:32:35;7.75;;;5.15;;
15996;SDS011;8103;51.340;12.326;2023-06-10T12:35:12;6.18;;;5.45;;
15996;SDS011;8103;51.340;12.326;2023-06-10T12:40:37;7.35;;;4.72;;
15996;SDS011;8103;51.340;12.326;2023-06-10T12:43:06;4.63;;;4.20;;
15996;SDS011;8103;51.340;12.326;2023-06-10T12:45:35;5.30;;;4.72;;
15996;SDS011;8103;51.340;12.326;2023-06-10T12:50:40;5.28;;;4.68;;
15996;SDS011;8103;51.340;12.326;2023-06-10T12:53:07;5.65;;;4.78;;
15996;SDS011;8103;51.340;12.326;2023-06-10T12:55:36;5.60;;;4.50;;
15996;SDS011;8103;51.340;12.326;2023-06-10T12:58:04;5.55;;;4.90;;
15996;SDS011;8103;51.340;12.326;2023-06-10T13:00:31;6.63;;;5.00;;
15996;SDS011;8103;51.340;12.326;2023-06-10T13:03:01;5.15;;;4.63;;
15996;SDS011;8103;51.340;12.326;2023-06-10T13:05:28;5.18;;;4.40;;
15996;SDS011;8103;51.340;12.326;2023-06-10T13:07:57;4.22;;;3.88;;
15996;SDS011;8103;51.340;12.326;2023-06-10T13:10:24;4.63;;;4.22;;
15996;SDS011;8103;51.340;12.326;2023-06-10T13:12:52;5.13;;;4.63;;
15996;SDS011;8103;51.340;12.326;2023-06-10T13:15:23;7.28;;;4.45;;
15996;SDS011;8103;51.340;12.326;2023-06-10T13:17:52;5.32;;;4.82;;
15996;SDS011;8103;51.340;12.326;2023-06-10T13:20:20;5.13;;;4.70;;
15996;SDS011;8103;51.340;12.326;2023-06-10T13:22:48;5.85;;;5.35;;
15996;SDS011;8103;51.340;12.326;2023-06-10T13:25:15;6.78;;;5.85;;
15996;SDS011;8103;51.340;12.326;2023-06-10T13:27:42;6.78;;;5.97;;
15996;SDS011;8103;51.340;12.326;2023-06-10T13:30:10;7.30;;;5.75;;
15996;SDS011;8103;51.340;12.326;2023-06-10T13:32:38;5.38;;;4.88;;
15996;SDS011;8103;51.340;12.326;2023-06-10T13:35:06;8.48;;;5.93;;
15996;SDS011;8103;51.340;12.326;2023-06-10T13:37:34;6.88;;;4.68;;
15996;SDS011;8103;51.340;12.326;2023-06-10T13:40:02;5.03;;;4.55;;
15996;SDS011;8103;51.340;12.326;2023-06-10T13:42:29;11.98;;;5.85;;
15996;SDS011;8103;51.340;12.326;2023-06-10T13:44:57;12.68;;;4.50;;
15996;SDS011;8103;51.340;12.326;2023-06-10T13:47:24;7.72;;;3.42;;
15996;SDS011;8103;51.340;12.326;2023-06-10T13:49:52;3.72;;;3.38;;
15996;SDS011;8103;51.340;12.326;2023-06-10T13:52:19;5.30;;;3.33;;
15996;SDS011;8103;51.340;12.326;2023-06-10T13:54:48;4.20;;;3.80;;
15996;SDS011;8103;51.340;12.326;2023-06-10T13:57:15;3.15;;;2.85;;
15996;SDS011;8103;51.340;12.326;2023-06-10T13:59:42;3.40;;;2.80;;
15996;SDS011;8103;51.340;12.326;2023-06-10T14:02:10;3.28;;;3.00;;
15996;SDS011;8103;51.340;12.326;2023-06-10T14:04:37;15.90;;;6.47;;
15996;SDS011;8103;51.340;12.326;2023-06-10T14:07:04;3.50;;;3.20;;
15996;SDS011;8103;51.340;12.326;2023-06-10T14:09:31;3.47;;;3.17;;
15996;SDS011;8103;51.340;12.326;2023-06-10T14:11:59;3.67;;;3.38;;
15996;SDS011;8103;51.340;12.326;2023-06-10T14:14:26;5.55;;;3.20;;
15996;SDS011;8103;51.340;12.326;2023-06-10T14:16:53;4.85;;;3.13;;
15996;SDS011;8103;51.340;12.326;2023-06-10T14:19:20;3.13;;;2.67;;
15996;SDS011;8103;51.340;12.326;2023-06-10T14:21:47;3.10;;;2.80;;
15996;SDS011;8103;51.340;12.326;2023-06-10T14:24:15;2.70;;;2.50;;
15996;SDS011;8103;51.340;12.326;2023-06-10T14:26:42;3.13;;;2.90;;
15996;SDS011;8103;51.340;12.326;2023-06-10T14:29:10;2.88;;;2.67;;
15996;SDS011;8103;51.340;12.326;2023-06-10T14:31:40;64.72;;;7.30;;
15996;SDS011;8103;51.340;12.326;2023-06-10T14:34:07;4.10;;;3.03;;
15996;SDS011;8103;51.340;12.326;2023-06-10T14:36:35;3.42;;;3.03;;
15996;SDS011;8103;51.340;12.326;2023-06-10T14:39:03;3.92;;;3.10;;
15996;SDS011;8103;51.340;12.326;2023-06-10T14:41:30;4.32;;;2.70;;
15996;SDS011;8103;51.340;12.326;2023-06-10T14:43:57;5.13;;;4.05;;
15996;SDS011;8103;51.340;12.326;2023-06-10T14:46:30;4.30;;;4.00;;
15996;SDS011;8103;51.340;12.326;2023-06-10T14:48:58;4.53;;;3.70;;
15996;SDS011;8103;51.340;12.326;2023-06-10T14:51:25;7.43;;;4.07;;
15996;SDS011;8103;51.340;12.326;2023-06-10T14:53:56;4.32;;;3.92;;
15996;SDS011;8103;51.340;12.326;2023-06-10T14:56:24;4.13;;;3.63;;
15996;SDS011;8103;51.340;12.326;2023-06-10T14:58:52;8.43;;;4.72;;
15996;SDS011;8103;51.340;12.326;2023-06-10T15:01:22;3.97;;;3.60;;
15996;SDS011;8103;51.340;12.326;2023-06-10T15:03:49;5.00;;;4.55;;
15996;SDS011;8103;51.340;12.326;2023-06-10T15:06:17;5.93;;;4.55;;
15996;SDS011;8103;51.340;12.326;2023-06-10T15:08:47;5.85;;;5.05;;
15996;SDS011;8103;51.340;12.326;2023-06-10T15:11:14;7.40;;;5.30;;
15996;SDS011;8103;51.340;12.326;2023-06-10T15:13:42;7.15;;;5.65;;
15996;SDS011;8103;51.340;12.326;2023-06-10T15:16:09;7.40;;;6.60;;
15996;SDS011;8103;51.340;12.326;2023-06-10T15:18:36;7.63;;;6.88;;
15996;SDS011;8103;51.340;12.326;2023-06-10T15:21:03;8.77;;;6.45;;